sensor_id;sensor_type;location;lat;lon;timestamp;P1;durP1;ratioP1;P2;durP2;ratioP2
5553;SDS011;2800;49.528;8.666;2023-05-10T00:02:06;8.70;;;4.90;;
5553;SDS011;2800;49.528;8.666;2023-05-10T00:04:31;9.03;;;5.10;;
5553;SDS011;2800;49.528;8.666;2023-05-10T00:06:57;9.20;;;5.43;;
5553;SDS011;2800;49.528;8.666;2023-05-10T00:09:23;11.33;;;5.13;;
5553;SDS011;2800;49.528;8.666;2023-05-10T00:11:48;7.43;;;4.33;;
5553;SDS011;2800;49.528;8.666;2023-05-10T00:14:14;7.53;;;4.60;;
5553;SDS011;2800;49.528;8.666;2023-05-10T00:16:39;7.40;;;4.33;;
5553;SDS011;2800;49.528;8.666;2023-05-10T00:19:05;8.33;;;4.93;;
5553;SDS011;2800;49.528;8.666;2023-05-10T00:21:31;6.97;;;4.30;;
5553;SDS011;2800;49.528;8.666;2023-05-10T00:23:58;8.10;;;4.10;;
5553;SDS011;2800;49.528;8.666;2023-05-10T00:26:24;7.17;;;4.10;;
5553;SDS011;2800;49.528;8.666;2023-05-10T00:28:49;7.30;;;4.07;;
5553;SDS011;2800;49.528;8.666;2023-05-10T00:31:15;7.73;;;4.13;;
5553;SDS011;2800;49.528;8.666;2023-05-10T00:33:40;6.70;;;3.37;;
5553;SDS011;2800;49.528;8.666;2023-05-10T00:36:06;6.80;;;3.70;;
5553;SDS011;2800;49.528;8.666;2023-05-10T00:38:32;9.50;;;4.10;;
5553;SDS011;2800;49.528;8.666;2023-05-10T00:40:58;9.33;;;3.77;;
5553;SDS011;2800;49.528;8.666;2023-05-10T00:43:24;5.50;;;3.70;;
5553;SDS011;2800;49.528;8.666;2023-05-10T00:45:49;8.00;;;4.03;;
5553;SDS011;2800;49.528;8.666;2023-05-10T00:48:15;6.07;;;4.10;;
5553;SDS011;2800;49.528;8.666;2023-05-10T00:50:41;8.70;;;3.80;;
5553;SDS011;2800;49.528;8.666;2023-05-10T00:53:06;6.40;;;3.93;;
5553;SDS011;2800;49.528;8.666;2023-05-10T00:55:33;6.70;;;3.70;;
5553;SDS011;2800;49.528;8.666;2023-05-10T00:57:58;8.23;;;3.77;;
5553;SDS011;2800;49.528;8.666;2023-05-10T01:00:24;8.17;;;4.53;;
5553;SDS011;2800;49.528;8.666;2023-05-10T01:02:50;7.73;;;3.90;;
5553;SDS011;2800;49.528;8.666;2023-05-10T01:05:17;5.97;;;3.50;;
5553;SDS011;2800;49.528;8.666;2023-05-10T01:07:43;6.30;;;3.73;;
5553;SDS011;2800;49.528;8.666;2023-05-10T01:10:08;8.20;;;3.47;;
5553;SDS011;2800;49.528;8.666;2023-05-10T01:12:35;7.83;;;3.90;;
5553;SDS011;2800;49.528;8.666;2023-05-10T01:15:04;5.80;;;3.87;;
5553;SDS011;2800;49.528;8.666;2023-05-10T01:17:31;7.53;;;3.40;;
5553;SDS011;2800;49.528;8.666;2023-05-10T01:19:58;6.33;;;3.50;;
5553;SDS011;2800;49.528;8.666;2023-05-10T01:25:29;7.20;;;3.73;;
5553;SDS011;2800;49.528;8.666;2023-05-10T01:33:52;5.67;;;3.03;;
5553;SDS011;2800;49.528;8.666;2023-05-10T01:39:25;6.77;;;3.23;;
5553;SDS011;2800;49.528;8.666;2023-05-10T01:41:54;7.20;;;3.37;;
5553;SDS011;2800;49.528;8.666;2023-05-10T01:45:30;6.30;;;3.13;;
5553;SDS011;2800;49.528;8.666;2023-05-10T01:50:03;5.50;;;2.50;;
5553;SDS011;2800;49.528;8.666;2023-05-10T01:52:37;5.10;;;2.57;;
5553;SDS011;2800;49.528;8.666;2023-05-10T01:55:07;10.87;;;3.20;;
5553;SDS011;2800;49.528;8.666;2023-05-10T01:57:36;6.97;;;2.67;;
5553;SDS011;2800;49.528;8.666;2023-05-10T02:00:04;8.20;;;2.73;;
5553;SDS011;2800;49.528;8.666;2023-05-10T02:02:33;5.10;;;2.57;;
5553;SDS011;2800;49.528;8.666;2023-05-10T02:05:04;5.90;;;2.60;;
5553;SDS011;2800;49.528;8.666;2023-05-10T02:07:31;6.00;;;2.67;;
5553;SDS011;2800;49.528;8.666;2023-05-10T02:10:00;5.77;;;2.60;;
5553;SDS011;2800;49.528;8.666;2023-05-10T02:12:32;5.40;;;2.67;;
5553;SDS011;2800;49.528;8.666;2023-05-10T02:15:01;5.73;;;2.77;;
5553;SDS011;2800;49.528;8.666;2023-05-10T02:17:30;5.90;;;2.30;;
5553;SDS011;2800;49.528;8.666;2023-05-10T02:19:57;6.10;;;2.70;;
5553;SDS011;2800;49.528;8.666;2023-05-10T02:22:25;4.67;;;2.30;;
5553;SDS011;2800;49.528;8.666;2023-05-10T02:24:52;6.17;;;2.50;;
5553;SDS011;2800;49.528;8.666;2023-05-10T02:27:20;7.73;;;2.53;;
5553;SDS011;2800;49.528;8.666;2023-05-10T02:29:47;8.70;;;2.50;;
5553;SDS011;2800;49.528;8.666;2023-05-10T02:32:15;5.00;;;2.67;;
5553;SDS011;2800;49.528;8.666;2023-05-10T02:34:42;6.20;;;2.50;;
5553;SDS011;2800;49.528;8.666;2023-05-10T02:37:10;5.00;;;2.67;;
5553;SDS011;2800;49.528;8.666;2023-05-10T02:39:40;4.90;;;2.50;;
5553;SDS011;2800;49.528;8.666;2023-05-10T02:42:10;4.73;;;2.40;;
5553;SDS011;2800;49.528;8.666;2023-05-10T02:44:40;7.93;;;2.40;;
5553;SDS011;2800;49.528;8.666;2023-05-10T02:47:07;5.00;;;2.47;;
5553;SDS011;2800;49.528;8.666;2023-05-10T02:49:33;5.70;;;2.30;;
5553;SDS011;2800;49.528;8.666;2023-05-10T02:52:00;5.17;;;2.50;;
5553;SDS011;2800;49.528;8.666;2023-05-10T02:54:30;5.30;;;2.60;;
5553;SDS011;2800;49.528;8.666;2023-05-10T02:57:00;5.03;;;2.63;;
5553;SDS011;2800;49.528;8.666;2023-05-10T02:59:28;6.03;;;2.10;;
5553;SDS011;2800;49.528;8.666;2023-05-10T03:01:54;4.90;;;2.20;;
5553;SDS011;2800;49.528;8.666;2023-05-10T03:04:19;5.00;;;2.43;;
5553;SDS011;2800;49.528;8.666;2023-05-10T03:06:45;6.17;;;2.30;;
5553;SDS011;2800;49.528;8.666;2023-05-10T03:09:11;5.70;;;2.50;;
5553;SDS011;2800;49.528;8.666;2023-05-10T03:11:55;4.50;;;2.33;;
5553;SDS011;2800;49.528;8.666;2023-05-10T03:17:23;4.70;;;2.30;;
5553;SDS011;2800;49.528;8.666;2023-05-10T03:20:09;5.93;;;2.50;;
5553;SDS011;2800;49.528;8.666;2023-05-10T03:22:38;5.20;;;2.90;;
5553;SDS011;2800;49.528;8.666;2023-05-10T03:25:10;5.47;;;2.57;;
5553;SDS011;2800;49.528;8.666;2023-05-10T03:27:38;5.40;;;2.70;;
5553;SDS011;2800;49.528;8.666;2023-05-10T03:30:07;7.70;;;3.13;;
5553;SDS011;2800;49.528;8.666;2023-05-10T03:32:35;6.90;;;2.70;;
5553;SDS011;2800;49.528;8.666;2023-05-10T03:35:05;6.73;;;3.50;;
5553;SDS011;2800;49.528;8.666;2023-05-10T03:37:32;6.77;;;3.53;;
5553;SDS011;2800;49.528;8.666;2023-05-10T03:39:57;5.90;;;3.00;;
5553;SDS011;2800;49.528;8.666;2023-05-10T03:42:23;6.60;;;3.40;;
5553;SDS011;2800;49.528;8.666;2023-05-10T03:44:48;6.00;;;3.27;;
5553;SDS011;2800;49.528;8.666;2023-05-10T03:47:14;5.90;;;2.97;;
5553;SDS011;2800;49.528;8.666;2023-05-10T03:49:40;5.90;;;3.30;;
5553;SDS011;2800;49.528;8.666;2023-05-10T03:52:05;9.67;;;3.80;;
5553;SDS011;2800;49.528;8.666;2023-05-10T03:54:31;7.57;;;3.70;;
5553;SDS011;2800;49.528;8.666;2023-05-10T03:56:57;5.83;;;2.93;;
5553;SDS011;2800;49.528;8.666;2023-05-10T03:59:22;6.17;;;3.10;;
5553;SDS011;2800;49.528;8.666;2023-05-10T04:01:48;6.13;;;3.20;;
5553;SDS011;2800;49.528;8.666;2023-05-10T04:04:13;5.70;;;3.13;;
5553;SDS011;2800;49.528;8.666;2023-05-10T04:06:39;12.83;;;3.57;;
5553;SDS011;2800;49.528;8.666;2023-05-10T04:09:04;5.23;;;3.07;;
5553;SDS011;2800;49.528;8.666;2023-05-10T04:11:30;4.97;;;3.03;;
5553;SDS011;2800;49.528;8.666;2023-05-10T04:13:56;6.10;;;3.40;;
5553;SDS011;2800;49.528;8.666;2023-05-10T04:16:21;6.63;;;3.37;;
5553;SDS011;2800;49.528;8.666;2023-05-10T04:18:47;7.50;;;3.97;;
5553;SDS011;2800;49.528;8.666;2023-05-10T04:21:13;5.43;;;3.10;;
5553;SDS011;2800;49.528;8.666;2023-05-10T04:23:39;6.17;;;3.40;;
5553;SDS011;2800;49.528;8.666;2023-05-10T04:26:05;5.97;;;3.10;;
5553;SDS011;2800;49.528;8.666;2023-05-10T04:28:30;8.60;;;3.50;;
5553;SDS011;2800;49.528;8.666;2023-05-10T04:31:03;6.03;;;3.50;;
5553;SDS011;2800;49.528;8.666;2023-05-10T04:33:29;7.27;;;3.30;;
5553;SDS011;2800;49.528;8.666;2023-05-10T04:35:55;7.03;;;3.93;;
5553;SDS011;2800;49.528;8.666;2023-05-10T04:38:21;11.30;;;3.97;;
5553;SDS011;2800;49.528;8.666;2023-05-10T04:40:46;6.73;;;3.60;;
5553;SDS011;2800;49.528;8.666;2023-05-10T04:43:12;6.80;;;3.60;;
5553;SDS011;2800;49.528;8.666;2023-05-10T04:45:38;8.50;;;4.10;;
5553;SDS011;2800;49.528;8.666;2023-05-10T04:48:03;7.13;;;3.77;;
5553;SDS011;2800;49.528;8.666;2023-05-10T04:50:29;7.47;;;3.47;;
5553;SDS011;2800;49.528;8.666;2023-05-10T04:52:55;7.10;;;3.60;;
5553;SDS011;2800;49.528;8.666;2023-05-10T04:55:20;6.50;;;3.37;;
5553;SDS011;2800;49.528;8.666;2023-05-10T04:57:46;7.50;;;3.67;;
5553;SDS011;2800;49.528;8.666;2023-05-10T05:00:12;6.30;;;3.70;;
5553;SDS011;2800;49.528;8.666;2023-05-10T05:02:38;6.80;;;3.90;;
5553;SDS011;2800;49.528;8.666;2023-05-10T05:05:06;7.87;;;3.80;;
5553;SDS011;2800;49.528;8.666;2023-05-10T05:07:32;8.07;;;3.57;;
5553;SDS011;2800;49.528;8.666;2023-05-10T05:09:58;5.80;;;3.40;;
5553;SDS011;2800;49.528;8.666;2023-05-10T05:12:23;6.80;;;3.93;;
5553;SDS011;2800;49.528;8.666;2023-05-10T05:14:49;7.70;;;4.00;;
5553;SDS011;2800;49.528;8.666;2023-05-10T05:17:14;7.30;;;3.60;;
5553;SDS011;2800;49.528;8.666;2023-05-10T05:19:40;6.17;;;4.00;;
5553;SDS011;2800;49.528;8.666;2023-05-10T05:22:06;12.03;;;4.20;;
5553;SDS011;2800;49.528;8.666;2023-05-10T05:24:36;6.50;;;4.67;;
5553;SDS011;2800;49.528;8.666;2023-05-10T05:27:04;7.53;;;4.23;;
5553;SDS011;2800;49.528;8.666;2023-05-10T05:29:30;7.47;;;4.80;;
5553;SDS011;2800;49.528;8.666;2023-05-10T05:31:56;7.70;;;4.20;;
5553;SDS011;2800;49.528;8.666;2023-05-10T05:34:22;5.47;;;3.80;;
5553;SDS011;2800;49.528;8.666;2023-05-10T05:36:47;6.10;;;3.93;;
5553;SDS011;2800;49.528;8.666;2023-05-10T05:39:13;7.50;;;3.80;;
5553;SDS011;2800;49.528;8.666;2023-05-10T05:41:39;6.17;;;4.07;;
5553;SDS011;2800;49.528;8.666;2023-05-10T05:44:04;6.27;;;4.13;;
5553;SDS011;2800;49.528;8.666;2023-05-10T05:46:30;6.57;;;3.90;;
5553;SDS011;2800;49.528;8.666;2023-05-10T05:48:55;7.53;;;4.77;;
5553;SDS011;2800;49.528;8.666;2023-05-10T05:51:21;6.67;;;4.40;;
5553;SDS011;2800;49.528;8.666;2023-05-10T05:53:47;8.60;;;4.87;;
5553;SDS011;2800;49.528;8.666;2023-05-10T05:56:12;10.50;;;5.20;;
5553;SDS011;2800;49.528;8.666;2023-05-10T05:58:38;7.50;;;5.00;;
5553;SDS011;2800;49.528;8.666;2023-05-10T06:01:03;9.80;;;5.30;;
5553;SDS011;2800;49.528;8.666;2023-05-10T06:03:29;7.47;;;5.60;;
5553;SDS011;2800;49.528;8.666;2023-05-10T06:05:54;9.17;;;5.20;;
5553;SDS011;2800;49.528;8.666;2023-05-10T06:08:20;7.80;;;5.10;;
5553;SDS011;2800;49.528;8.666;2023-05-10T06:10:45;8.13;;;5.17;;
5553;SDS011;2800;49.528;8.666;2023-05-10T06:13:11;7.97;;;4.97;;
5553;SDS011;2800;49.528;8.666;2023-05-10T06:15:37;7.50;;;4.80;;
5553;SDS011;2800;49.528;8.666;2023-05-10T06:18:03;8.33;;;5.03;;
5553;SDS011;2800;49.528;8.666;2023-05-10T06:20:29;6.93;;;5.07;;
5553;SDS011;2800;49.528;8.666;2023-05-10T06:22:56;9.27;;;5.70;;
5553;SDS011;2800;49.528;8.666;2023-05-10T06:25:22;8.73;;;4.97;;
5553;SDS011;2800;49.528;8.666;2023-05-10T06:27:48;9.10;;;5.40;;
5553;SDS011;2800;49.528;8.666;2023-05-10T06:30:13;14.20;;;4.57;;
5553;SDS011;2800;49.528;8.666;2023-05-10T06:32:40;7.70;;;4.57;;
5553;SDS011;2800;49.528;8.666;2023-05-10T06:35:06;7.93;;;4.60;;
5553;SDS011;2800;49.528;8.666;2023-05-10T06:37:32;10.40;;;4.90;;
5553;SDS011;2800;49.528;8.666;2023-05-10T06:39:57;8.77;;;5.07;;
5553;SDS011;2800;49.528;8.666;2023-05-10T06:42:22;8.30;;;5.13;;
5553;SDS011;2800;49.528;8.666;2023-05-10T06:44:50;7.80;;;5.30;;
5553;SDS011;2800;49.528;8.666;2023-05-10T06:47:15;11.83;;;4.93;;
5553;SDS011;2800;49.528;8.666;2023-05-10T06:49:42;8.10;;;5.07;;
5553;SDS011;2800;49.528;8.666;2023-05-10T06:52:07;8.20;;;5.37;;
5553;SDS011;2800;49.528;8.666;2023-05-10T06:54:33;8.23;;;5.30;;
5553;SDS011;2800;49.528;8.666;2023-05-10T06:56:58;7.47;;;5.63;;
5553;SDS011;2800;49.528;8.666;2023-05-10T06:59:24;8.20;;;5.67;;
5553;SDS011;2800;49.528;8.666;2023-05-10T07:01:50;8.20;;;5.60;;
5553;SDS011;2800;49.528;8.666;2023-05-10T07:04:16;9.70;;;6.00;;
5553;SDS011;2800;49.528;8.666;2023-05-10T07:06:42;7.40;;;5.37;;
5553;SDS011;2800;49.528;8.666;2023-05-10T07:09:08;9.67;;;6.60;;
5553;SDS011;2800;49.528;8.666;2023-05-10T07:11:34;10.03;;;6.63;;
5553;SDS011;2800;49.528;8.666;2023-05-10T07:13:59;29.63;;;7.53;;
5553;SDS011;2800;49.528;8.666;2023-05-10T07:16:25;9.07;;;5.90;;
5553;SDS011;2800;49.528;8.666;2023-05-10T07:18:51;10.10;;;6.10;;
5553;SDS011;2800;49.528;8.666;2023-05-10T07:21:18;11.23;;;6.27;;
5553;SDS011;2800;49.528;8.666;2023-05-10T07:23:43;10.97;;;5.63;;
5553;SDS011;2800;49.528;8.666;2023-05-10T07:26:09;9.50;;;5.50;;
5553;SDS011;2800;49.528;8.666;2023-05-10T07:28:35;8.90;;;5.97;;
5553;SDS011;2800;49.528;8.666;2023-05-10T07:31:02;10.13;;;6.10;;
5553;SDS011;2800;49.528;8.666;2023-05-10T07:33:28;13.83;;;6.37;;
5553;SDS011;2800;49.528;8.666;2023-05-10T07:35:53;12.90;;;6.07;;
5553;SDS011;2800;49.528;8.666;2023-05-10T07:38:19;9.77;;;5.20;;
5553;SDS011;2800;49.528;8.666;2023-05-10T07:40:44;9.53;;;5.30;;
5553;SDS011;2800;49.528;8.666;2023-05-10T07:43:10;9.93;;;5.13;;
5553;SDS011;2800;49.528;8.666;2023-05-10T07:45:35;11.73;;;4.80;;
5553;SDS011;2800;49.528;8.666;2023-05-10T07:48:01;7.53;;;4.60;;
5553;SDS011;2800;49.528;8.666;2023-05-10T07:50:26;10.03;;;4.10;;
5553;SDS011;2800;49.528;8.666;2023-05-10T07:52:52;8.70;;;4.40;;
5553;SDS011;2800;49.528;8.666;2023-05-10T07:55:18;11.50;;;4.17;;
5553;SDS011;2800;49.528;8.666;2023-05-10T07:57:46;6.47;;;4.10;;
5553;SDS011;2800;49.528;8.666;2023-05-10T08:00:16;8.60;;;4.00;;
5553;SDS011;2800;49.528;8.666;2023-05-10T08:02:43;8.83;;;3.70;;
5553;SDS011;2800;49.528;8.666;2023-05-10T08:05:08;8.17;;;4.23;;
5553;SDS011;2800;49.528;8.666;2023-05-10T08:07:34;6.30;;;3.40;;
5553;SDS011;2800;49.528;8.666;2023-05-10T08:10:00;10.40;;;3.80;;
5553;SDS011;2800;49.528;8.666;2023-05-10T08:12:26;9.20;;;3.50;;
5553;SDS011;2800;49.528;8.666;2023-05-10T08:14:52;9.57;;;3.50;;
5553;SDS011;2800;49.528;8.666;2023-05-10T08:17:17;6.90;;;3.73;;
5553;SDS011;2800;49.528;8.666;2023-05-10T08:19:43;7.17;;;3.70;;
5553;SDS011;2800;49.528;8.666;2023-05-10T08:22:08;6.70;;;3.93;;
5553;SDS011;2800;49.528;8.666;2023-05-10T08:24:34;6.27;;;3.60;;
5553;SDS011;2800;49.528;8.666;2023-05-10T08:27:03;9.20;;;3.43;;
5553;SDS011;2800;49.528;8.666;2023-05-10T08:29:32;7.20;;;3.30;;
5553;SDS011;2800;49.528;8.666;2023-05-10T08:31:57;7.80;;;3.17;;
5553;SDS011;2800;49.528;8.666;2023-05-10T08:34:23;8.00;;;3.40;;
5553;SDS011;2800;49.528;8.666;2023-05-10T08:36:48;6.30;;;3.27;;
5553;SDS011;2800;49.528;8.666;2023-05-10T08:39:14;6.40;;;3.50;;
5553;SDS011;2800;49.528;8.666;2023-05-10T08:41:39;13.53;;;3.30;;
5553;SDS011;2800;49.528;8.666;2023-05-10T08:44:09;7.10;;;3.30;;
5553;SDS011;2800;49.528;8.666;2023-05-10T08:46:35;7.53;;;3.07;;
5553;SDS011;2800;49.528;8.666;2023-05-10T08:49:04;5.27;;;2.50;;
5553;SDS011;2800;49.528;8.666;2023-05-10T08:51:34;6.90;;;2.50;;
5553;SDS011;2800;49.528;8.666;2023-05-10T08:54:02;6.07;;;2.70;;
5553;SDS011;2800;49.528;8.666;2023-05-10T08:56:28;11.33;;;3.23;;
5553;SDS011;2800;49.528;8.666;2023-05-10T08:58:54;5.50;;;2.37;;
5553;SDS011;2800;49.528;8.666;2023-05-10T09:01:20;7.30;;;2.80;;
5553;SDS011;2800;49.528;8.666;2023-05-10T09:03:46;6.00;;;2.30;;
5553;SDS011;2800;49.528;8.666;2023-05-10T09:06:13;4.73;;;2.23;;
5553;SDS011;2800;49.528;8.666;2023-05-10T09:08:38;5.63;;;2.10;;
5553;SDS011;2800;49.528;8.666;2023-05-10T09:11:07;5.93;;;2.40;;
5553;SDS011;2800;49.528;8.666;2023-05-10T09:13:33;10.00;;;2.70;;
5553;SDS011;2800;49.528;8.666;2023-05-10T09:16:00;5.50;;;2.20;;
5553;SDS011;2800;49.528;8.666;2023-05-10T09:18:26;5.00;;;2.30;;
5553;SDS011;2800;49.528;8.666;2023-05-10T09:20:52;4.73;;;2.13;;
5553;SDS011;2800;49.528;8.666;2023-05-10T09:23:17;5.20;;;2.23;;
5553;SDS011;2800;49.528;8.666;2023-05-10T09:25:43;6.03;;;2.50;;
5553;SDS011;2800;49.528;8.666;2023-05-10T09:28:09;5.57;;;3.10;;
5553;SDS011;2800;49.528;8.666;2023-05-10T09:30:34;7.17;;;3.43;;
5553;SDS011;2800;49.528;8.666;2023-05-10T09:33:00;7.87;;;3.83;;
5553;SDS011;2800;49.528;8.666;2023-05-10T09:35:28;10.17;;;3.37;;
5553;SDS011;2800;49.528;8.666;2023-05-10T09:37:56;5.47;;;2.50;;
5553;SDS011;2800;49.528;8.666;2023-05-10T09:40:30;5.83;;;2.30;;
5553;SDS011;2800;49.528;8.666;2023-05-10T09:43:08;6.80;;;2.10;;
5553;SDS011;2800;49.528;8.666;2023-05-10T09:45:35;9.57;;;4.40;;
5553;SDS011;2800;49.528;8.666;2023-05-10T09:48:02;7.03;;;3.50;;
5553;SDS011;2800;49.528;8.666;2023-05-10T09:50:28;5.27;;;2.80;;
5553;SDS011;2800;49.528;8.666;2023-05-10T09:55:22;7.23;;;2.90;;
5553;SDS011;2800;49.528;8.666;2023-05-10T09:57:49;5.60;;;2.80;;
5553;SDS011;2800;49.528;8.666;2023-05-10T10:00:24;6.93;;;2.90;;
5553;SDS011;2800;49.528;8.666;2023-05-10T10:02:54;4.87;;;2.10;;
5553;SDS011;2800;49.528;8.666;2023-05-10T10:05:21;6.03;;;2.50;;
5553;SDS011;2800;49.528;8.666;2023-05-10T10:07:53;4.30;;;2.00;;
5553;SDS011;2800;49.528;8.666;2023-05-10T10:10:20;10.83;;;2.20;;
5553;SDS011;2800;49.528;8.666;2023-05-10T10:12:45;4.60;;;2.10;;
5553;SDS011;2800;49.528;8.666;2023-05-10T10:15:11;7.03;;;2.30;;
5553;SDS011;2800;49.528;8.666;2023-05-10T10:17:37;5.77;;;2.67;;
5553;SDS011;2800;49.528;8.666;2023-05-10T10:20:04;7.80;;;2.60;;
5553;SDS011;2800;49.528;8.666;2023-05-10T10:22:30;6.20;;;2.50;;
5553;SDS011;2800;49.528;8.666;2023-05-10T10:24:55;6.13;;;2.10;;
5553;SDS011;2800;49.528;8.666;2023-05-10T10:36:08;6.20;;;2.20;;
5553;SDS011;2800;49.528;8.666;2023-05-10T10:44:22;5.53;;;2.57;;
5553;SDS011;2800;49.528;8.666;2023-05-10T10:49:23;5.40;;;2.73;;
5553;SDS011;2800;49.528;8.666;2023-05-10T10:54:40;8.13;;;3.00;;
5553;SDS011;2800;49.528;8.666;2023-05-10T10:57:10;5.30;;;2.40;;
5553;SDS011;2800;49.528;8.666;2023-05-10T10:59:43;8.67;;;3.03;;
5553;SDS011;2800;49.528;8.666;2023-05-10T11:02:09;9.07;;;3.03;;
5553;SDS011;2800;49.528;8.666;2023-05-10T11:04:41;5.13;;;2.63;;
5553;SDS011;2800;49.528;8.666;2023-05-10T11:07:18;10.27;;;2.40;;
5553;SDS011;2800;49.528;8.666;2023-05-10T11:09:44;4.90;;;2.70;;
5553;SDS011;2800;49.528;8.666;2023-05-10T11:12:11;4.93;;;2.40;;
5553;SDS011;2800;49.528;8.666;2023-05-10T11:14:37;6.13;;;2.30;;
5553;SDS011;2800;49.528;8.666;2023-05-10T11:17:21;5.00;;;2.43;;
5553;SDS011;2800;49.528;8.666;2023-05-10T11:20:10;9.60;;;2.70;;
5553;SDS011;2800;49.528;8.666;2023-05-10T11:22:48;5.60;;;2.60;;
5553;SDS011;2800;49.528;8.666;2023-05-10T11:25:16;5.57;;;2.40;;
5553;SDS011;2800;49.528;8.666;2023-05-10T11:27:42;5.40;;;2.40;;
5553;SDS011;2800;49.528;8.666;2023-05-10T11:30:11;5.40;;;2.53;;
5553;SDS011;2800;49.528;8.666;2023-05-10T11:32:38;12.63;;;2.63;;
5553;SDS011;2800;49.528;8.666;2023-05-10T11:35:07;6.20;;;2.57;;
5553;SDS011;2800;49.528;8.666;2023-05-10T11:37:34;4.57;;;2.03;;
5553;SDS011;2800;49.528;8.666;2023-05-10T11:40:00;4.83;;;1.90;;
5553;SDS011;2800;49.528;8.666;2023-05-10T11:42:27;11.17;;;2.20;;
5553;SDS011;2800;49.528;8.666;2023-05-10T11:44:52;4.70;;;1.90;;
5553;SDS011;2800;49.528;8.666;2023-05-10T11:47:18;6.47;;;1.87;;
5553;SDS011;2800;49.528;8.666;2023-05-10T11:49:45;4.97;;;1.77;;
5553;SDS011;2800;49.528;8.666;2023-05-10T11:52:11;6.73;;;1.73;;
5553;SDS011;2800;49.528;8.666;2023-05-10T11:54:37;5.03;;;1.87;;
5553;SDS011;2800;49.528;8.666;2023-05-10T11:57:03;3.90;;;1.47;;
5553;SDS011;2800;49.528;8.666;2023-05-10T11:59:28;4.17;;;1.30;;
5553;SDS011;2800;49.528;8.666;2023-05-10T12:01:54;5.20;;;1.20;;
5553;SDS011;2800;49.528;8.666;2023-05-10T12:04:20;4.80;;;1.30;;
5553;SDS011;2800;49.528;8.666;2023-05-10T12:06:46;4.50;;;1.40;;
5553;SDS011;2800;49.528;8.666;2023-05-10T12:09:12;7.50;;;1.70;;
5553;SDS011;2800;49.528;8.666;2023-05-10T12:11:38;5.27;;;1.60;;
5553;SDS011;2800;49.528;8.666;2023-05-10T12:14:05;4.43;;;1.47;;
5553;SDS011;2800;49.528;8.666;2023-05-10T12:16:31;4.80;;;1.50;;
5553;SDS011;2800;49.528;8.666;2023-05-10T12:18:57;4.20;;;1.53;;
5553;SDS011;2800;49.528;8.666;2023-05-10T12:21:24;4.03;;;1.60;;
5553;SDS011;2800;49.528;8.666;2023-05-10T12:23:53;4.37;;;1.60;;
5553;SDS011;2800;49.528;8.666;2023-05-10T12:26:22;4.93;;;1.53;;
5553;SDS011;2800;49.528;8.666;2023-05-10T12:28:49;4.53;;;1.57;;
5553;SDS011;2800;49.528;8.666;2023-05-10T12:31:14;5.20;;;1.50;;
5553;SDS011;2800;49.528;8.666;2023-05-10T12:33:41;4.73;;;1.50;;
5553;SDS011;2800;49.528;8.666;2023-05-10T12:36:08;8.47;;;1.70;;
5553;SDS011;2800;49.528;8.666;2023-05-10T12:38:36;4.30;;;1.50;;
5553;SDS011;2800;49.528;8.666;2023-05-10T12:41:07;5.30;;;1.73;;
5553;SDS011;2800;49.528;8.666;2023-05-10T12:43:34;4.70;;;1.50;;
5553;SDS011;2800;49.528;8.666;2023-05-10T12:46:13;4.83;;;1.57;;
5553;SDS011;2800;49.528;8.666;2023-05-10T12:48:40;5.23;;;1.63;;
5553;SDS011;2800;49.528;8.666;2023-05-10T12:51:06;4.90;;;1.70;;
5553;SDS011;2800;49.528;8.666;2023-05-10T12:53:37;5.43;;;1.90;;
5553;SDS011;2800;49.528;8.666;2023-05-10T12:56:06;4.33;;;1.53;;
5553;SDS011;2800;49.528;8.666;2023-05-10T12:58:32;6.03;;;1.63;;
5553;SDS011;2800;49.528;8.666;2023-05-10T13:00:58;5.50;;;2.10;;
5553;SDS011;2800;49.528;8.666;2023-05-10T13:03:24;6.30;;;1.87;;
5553;SDS011;2800;49.528;8.666;2023-05-10T13:05:50;7.33;;;2.10;;
5553;SDS011;2800;49.528;8.666;2023-05-10T13:08:15;5.03;;;1.70;;
5553;SDS011;2800;49.528;8.666;2023-05-10T13:10:41;7.00;;;2.20;;
5553;SDS011;2800;49.528;8.666;2023-05-10T13:13:06;6.30;;;2.03;;
5553;SDS011;2800;49.528;8.666;2023-05-10T13:15:33;5.00;;;1.70;;
5553;SDS011;2800;49.528;8.666;2023-05-10T13:17:58;13.07;;;2.23;;
5553;SDS011;2800;49.528;8.666;2023-05-10T13:20:25;6.00;;;1.87;;
5553;SDS011;2800;49.528;8.666;2023-05-10T13:22:50;5.10;;;1.63;;
5553;SDS011;2800;49.528;8.666;2023-05-10T13:25:16;4.70;;;1.73;;
5553;SDS011;2800;49.528;8.666;2023-05-10T13:27:42;8.87;;;2.17;;
5553;SDS011;2800;49.528;8.666;2023-05-10T13:30:08;7.20;;;2.00;;
5553;SDS011;2800;49.528;8.666;2023-05-10T13:32:34;6.60;;;1.80;;
5553;SDS011;2800;49.528;8.666;2023-05-10T13:35:00;5.10;;;2.00;;
5553;SDS011;2800;49.528;8.666;2023-05-10T13:37:26;6.30;;;2.00;;
5553;SDS011;2800;49.528;8.666;2023-05-10T13:39:51;7.30;;;1.60;;
5553;SDS011;2800;49.528;8.666;2023-05-10T13:42:17;7.47;;;1.73;;
5553;SDS011;2800;49.528;8.666;2023-05-10T13:44:43;4.87;;;1.57;;
5553;SDS011;2800;49.528;8.666;2023-05-10T13:47:08;9.30;;;1.70;;
5553;SDS011;2800;49.528;8.666;2023-05-10T13:49:35;3.90;;;1.53;;
5553;SDS011;2800;49.528;8.666;2023-05-10T13:52:00;5.77;;;1.73;;
5553;SDS011;2800;49.528;8.666;2023-05-10T13:54:31;7.80;;;1.77;;
5553;SDS011;2800;49.528;8.666;2023-05-10T13:57:00;6.87;;;1.77;;
5553;SDS011;2800;49.528;8.666;2023-05-10T13:59:26;6.27;;;1.60;;
5553;SDS011;2800;49.528;8.666;2023-05-10T14:01:51;5.77;;;1.53;;
5553;SDS011;2800;49.528;8.666;2023-05-10T14:04:17;4.93;;;1.50;;
5553;SDS011;2800;49.528;8.666;2023-05-10T14:06:42;3.90;;;1.50;;
5553;SDS011;2800;49.528;8.666;2023-05-10T14:09:08;4.07;;;1.30;;
5553;SDS011;2800;49.528;8.666;2023-05-10T14:11:33;5.50;;;1.50;;
5553;SDS011;2800;49.528;8.666;2023-05-10T14:13:59;3.50;;;1.50;;
5553;SDS011;2800;49.528;8.666;2023-05-10T14:16:24;4.90;;;1.50;;
5553;SDS011;2800;49.528;8.666;2023-05-10T14:18:51;5.77;;;1.63;;
5553;SDS011;2800;49.528;8.666;2023-05-10T14:21:16;4.30;;;1.40;;
5553;SDS011;2800;49.528;8.666;2023-05-10T14:23:42;7.50;;;1.37;;
5553;SDS011;2800;49.528;8.666;2023-05-10T14:26:07;4.80;;;1.50;;
5553;SDS011;2800;49.528;8.666;2023-05-10T14:28:33;4.83;;;1.43;;
5553;SDS011;2800;49.528;8.666;2023-05-10T14:30:59;4.90;;;1.60;;
5553;SDS011;2800;49.528;8.666;2023-05-10T14:33:24;6.10;;;1.70;;
5553;SDS011;2800;49.528;8.666;2023-05-10T14:35:50;6.20;;;1.50;;
5553;SDS011;2800;49.528;8.666;2023-05-10T14:38:15;3.90;;;1.20;;
5553;SDS011;2800;49.528;8.666;2023-05-10T14:40:41;3.50;;;1.20;;
5553;SDS011;2800;49.528;8.666;2023-05-10T14:43:07;5.93;;;1.53;;
5553;SDS011;2800;49.528;8.666;2023-05-10T14:45:33;4.87;;;2.10;;
5553;SDS011;2800;49.528;8.666;2023-05-10T14:47:59;5.40;;;1.20;;
5553;SDS011;2800;49.528;8.666;2023-05-10T14:50:25;4.90;;;1.30;;
5553;SDS011;2800;49.528;8.666;2023-05-10T14:52:50;4.40;;;1.33;;
5553;SDS011;2800;49.528;8.666;2023-05-10T14:55:16;3.63;;;1.30;;
5553;SDS011;2800;49.528;8.666;2023-05-10T14:57:41;5.37;;;1.40;;
5553;SDS011;2800;49.528;8.666;2023-05-10T15:00:09;4.97;;;1.43;;
5553;SDS011;2800;49.528;8.666;2023-05-10T15:02:35;3.93;;;1.20;;
5553;SDS011;2800;49.528;8.666;2023-05-10T15:05:00;3.70;;;1.20;;
5553;SDS011;2800;49.528;8.666;2023-05-10T15:07:26;3.67;;;1.33;;
5553;SDS011;2800;49.528;8.666;2023-05-10T15:09:51;3.87;;;1.30;;
5553;SDS011;2800;49.528;8.666;2023-05-10T15:12:17;3.60;;;1.20;;
5553;SDS011;2800;49.528;8.666;2023-05-10T15:14:43;4.33;;;1.30;;
5553;SDS011;2800;49.528;8.666;2023-05-10T15:17:09;4.60;;;1.23;;
5553;SDS011;2800;49.528;8.666;2023-05-10T15:19:35;4.10;;;1.30;;
5553;SDS011;2800;49.528;8.666;2023-05-10T15:22:01;4.83;;;1.50;;
5553;SDS011;2800;49.528;8.666;2023-05-10T15:24:27;3.97;;;1.40;;
5553;SDS011;2800;49.528;8.666;2023-05-10T15:26:53;3.90;;;1.23;;
5553;SDS011;2800;49.528;8.666;2023-05-10T15:29:18;3.57;;;1.10;;
5553;SDS011;2800;49.528;8.666;2023-05-10T15:31:45;4.20;;;1.30;;
5553;SDS011;2800;49.528;8.666;2023-05-10T15:34:14;9.30;;;1.40;;
5553;SDS011;2800;49.528;8.666;2023-05-10T15:36:40;5.77;;;1.40;;
5553;SDS011;2800;49.528;8.666;2023-05-10T15:39:05;4.23;;;1.30;;
5553;SDS011;2800;49.528;8.666;2023-05-10T15:41:31;5.70;;;1.30;;
5553;SDS011;2800;49.528;8.666;2023-05-10T15:43:57;5.33;;;1.50;;
5553;SDS011;2800;49.528;8.666;2023-05-10T15:46:26;4.83;;;1.40;;
5553;SDS011;2800;49.528;8.666;2023-05-10T15:48:52;4.07;;;1.20;;
5553;SDS011;2800;49.528;8.666;2023-05-10T15:51:18;3.87;;;1.30;;
5553;SDS011;2800;49.528;8.666;2023-05-10T15:53:44;4.83;;;1.50;;